メインページ
METAR-TAF:

METAR-TAF

空港 :

ホニアラ国際空港

ホニアラ, ガダルカナル島, ソロモン諸島

緯度: 09-25S, 経度: 160-03E, 海抜: 8m

現時点の気象観測

当レポートは12分前の05:00(UTC)に作成
の風 8kt
気温 28°C
湿度 84%
気圧 1009 hPa
視程10km以上
高度1700ftの雲はほとんどない
高度1900ftの雲はほとんどない, 積乱雲.
高度3000ftの雲は散在している
高度10000ftの千切れ雲あり

METAR: AGGH 200500Z 09008KT 9999 FEW017 FEW019CB SCT030 BKN100 28/25 Q1009

時間: 16:12 (05:12 UTC)

予報

当レポートは6時間2分前の23:10(UTC)に作成
予報は20日の 00時(UTC)から 20日の 24時(UTC)まで有効
東/北東の風 10kt
視程10km以上
高度1800ftの雲は散在している
(弱い) にわか雨, 霧雨
確率 40%
間 INからTE UTC
視程: 1012m
高度1700ftの雲は散在している
高度1900ftの雲はほとんどない, 積乱雲.

TAF: AGGH 192310Z 2000/2024 07010KT 9999 -SHDZ SCT018 PROB40 INTER 2002/2006 9999 -TSSH SCT017 FEW019CB T 31 31 30 28 Q 1013 1011 1010 1012

4,000以上の空港の気象観測と天気予報(METAR報とTAF報)

利用可能な観測所は地図上に黄色い丸と赤い丸で示す。

丸の上にカーソルを重ねると観測所名を参照できる。

次にクリックすると気象観測と天気予報を参照できる。

マップの切り替え:黒色「×」印の緑ボタンをクリックして拡大、「-」印の緑ボタンをクリックして縮小、緑色の三角印をクリックして隣りの地図に切り替え


METAR-TAF: